createdAt,value
2022-10-23T00:00:42.656Z,100676.69
2022-10-23T00:03:10.749Z,100683.19
2022-10-23T00:05:41.023Z,100681.34
2022-10-23T00:08:09.187Z,100677.28
2022-10-23T00:10:37.127Z,100680.00
2022-10-23T00:13:05.270Z,100676.69
2022-10-23T00:15:35.394Z,100666.91
2022-10-23T00:18:04.980Z,100677.28
2022-10-23T00:20:32.828Z,100673.44
2022-10-23T00:23:00.786Z,100677.97
2022-10-23T00:25:29.029Z,100681.22
2022-10-23T00:27:56.932Z,100686.84
2022-10-23T00:30:24.795Z,100680.91
2022-10-23T00:32:52.795Z,100681.44
2022-10-23T00:35:22.038Z,100681.94
2022-10-23T00:37:50.083Z,100690.19
2022-10-23T00:40:18.030Z,100683.63
2022-10-23T00:42:45.944Z,100682.75
2022-10-23T00:45:22.191Z,100679.81
2022-10-23T00:47:50.520Z,100686.06
2022-10-23T00:50:18.655Z,100679.28
2022-10-23T00:52:49.521Z,100677.13
2022-10-23T00:55:18.373Z,100681.59
2022-10-23T00:57:47.899Z,100682.13
2022-10-23T01:00:17.911Z,100675.59
2022-10-23T01:02:46.337Z,100669.84
2022-10-23T01:05:14.530Z,100662.28
2022-10-23T01:07:50.859Z,100662.59
2022-10-23T01:10:24.522Z,100656.00
2022-10-23T01:12:55.692Z,100658.44
2022-10-23T01:15:26.199Z,100655.22
2022-10-23T01:17:57.668Z,100650.63
2022-10-23T01:20:32.681Z,100653.94
2022-10-23T01:23:11.978Z,100650.69
2022-10-23T01:26:00.836Z,100658.88
2022-10-23T01:28:33.836Z,100653.47
2022-10-23T01:31:03.478Z,100647.44
2022-10-23T01:33:34.846Z,100648.25
2022-10-23T01:36:04.778Z,100647.13
2022-10-23T01:38:36.736Z,100645.75
2022-10-23T01:41:08.322Z,100647.66
2022-10-23T01:43:39.975Z,100647.94
2022-10-23T01:46:10.043Z,100644.66
2022-10-23T01:48:38.635Z,100643.50
2022-10-23T01:51:09.030Z,100632.03
2022-10-23T01:53:41.339Z,100639.13
2022-10-23T01:56:12.945Z,100635.50
2022-10-23T01:58:44.146Z,100632.72
2022-10-23T02:01:12.710Z,100621.50
2022-10-23T02:03:43.085Z,100623.13
2022-10-23T02:06:11.092Z,100611.38
2022-10-23T02:08:38.974Z,100613.53
2022-10-23T02:11:09.165Z,100607.66
2022-10-23T02:13:41.004Z,100593.41
2022-10-23T02:16:16.584Z,100581.38
2022-10-23T02:18:49.781Z,100583.00
2022-10-23T02:21:19.267Z,100583.00
2022-10-23T02:23:53.801Z,100587.28
2022-10-23T02:26:26.183Z,100589.13
2022-10-23T02:28:57.170Z,100582.19
2022-10-23T02:31:26.594Z,100587.38
2022-10-23T02:33:54.531Z,100587.59
2022-10-23T02:36:22.541Z,100587.00
2022-10-23T02:38:50.460Z,100574.38
2022-10-23T02:41:25.973Z,100569.28
2022-10-23T02:44:01.334Z,100568.25
2022-10-23T02:46:33.193Z,100576.22
2022-10-23T02:49:09.584Z,100570.53
2022-10-23T02:51:43.872Z,100572.44
2022-10-23T02:54:17.608Z,100571.34
2022-10-23T02:56:49.439Z,100582.25
2022-10-23T02:59:21.662Z,100570.81
2022-10-23T03:01:53.175Z,100580.72
2022-10-23T03:04:24.760Z,100579.06
2022-10-23T03:06:53.021Z,100566.00
2022-10-23T03:09:21.053Z,100573.53
2022-10-23T03:11:48.941Z,100570.28
2022-10-23T03:14:16.807Z,100571.91
2022-10-23T03:16:44.700Z,100567.84
2022-10-23T03:19:14.129Z,100557.22
2022-10-23T03:21:42.110Z,100558.78
2022-10-23T03:24:09.994Z,100548.94
2022-10-23T03:26:38.141Z,100539.50
2022-10-23T03:29:05.952Z,100535.75
2022-10-23T03:31:33.961Z,100533.03
2022-10-23T03:34:04.074Z,100523.09
2022-10-23T03:36:35.777Z,100521.78
2022-10-23T03:39:04.258Z,100521.56
2022-10-23T03:41:32.464Z,100519.44
2022-10-23T03:44:00.452Z,100519.72
2022-10-23T03:46:28.391Z,100518.91
2022-10-23T03:48:58.115Z,100520.84
2022-10-23T03:51:26.296Z,100518.03
2022-10-23T03:53:55.514Z,100520.75
2022-10-23T03:56:23.348Z,100517.13
2022-10-23T03:58:51.213Z,100510.25
2022-10-23T04:01:19.329Z,100506.63
2022-10-23T04:03:47.200Z,100507.97
2022-10-23T04:06:15.436Z,100505.22
2022-10-23T04:08:43.725Z,100497.84
2022-10-23T04:11:13.047Z,100495.84
2022-10-23T04:13:41.106Z,100496.06
2022-10-23T04:16:08.992Z,100490.81
2022-10-23T04:18:36.809Z,100494.06
2022-10-23T04:21:04.738Z,100496.22
2022-10-23T04:23:32.739Z,100494.78
2022-10-23T04:26:00.682Z,100499.34
2022-10-23T04:28:36.823Z,100498.47
2022-10-23T04:31:04.757Z,100495.22
2022-10-23T04:33:32.604Z,100498.19
2022-10-23T04:36:00.549Z,100500.25
2022-10-23T04:38:28.444Z,100501.28
2022-10-23T04:40:56.447Z,100502.91
2022-10-23T04:43:24.319Z,100498.06
2022-10-23T04:45:53.554Z,100500.63
2022-10-23T04:48:25.488Z,100484.31
2022-10-23T04:50:57.586Z,100483.50
2022-10-23T04:53:25.777Z,100485.66
2022-10-23T04:55:54.253Z,100475.00
2022-10-23T04:58:22.301Z,100465.69
2022-10-23T05:00:50.502Z,100475.59
2022-10-23T05:03:20.098Z,100463.25
2022-10-23T05:05:47.963Z,100463.34
2022-10-23T05:08:18.081Z,100459.78
2022-10-23T05:10:46.277Z,100463.84
2022-10-23T05:13:14.261Z,100463.16
2022-10-23T05:18:13.001Z,100465.88
2022-10-23T05:20:43.656Z,100465.88
2022-10-23T05:23:12.457Z,100461.00
2022-10-23T05:25:42.866Z,100470.13
2022-10-23T05:28:10.764Z,100459.63
2022-10-23T05:30:39.339Z,100451.50
2022-10-23T05:33:07.487Z,100451.78
2022-10-23T05:35:35.350Z,100442.06
2022-10-23T05:38:04.971Z,100438.41
2022-10-23T05:40:32.913Z,100443.59
2022-10-23T05:43:00.996Z,100449.38
2022-10-23T05:45:29.034Z,100448.75
2022-10-23T05:48:05.768Z,100457.06
2022-10-23T05:50:44.976Z,100442.16
2022-10-23T05:53:14.244Z,100441.34
2022-10-23T05:55:42.206Z,100436.91
2022-10-23T05:58:10.246Z,100438.72
2022-10-23T06:00:38.079Z,100436.28
2022-10-23T06:03:06.105Z,100436.28
2022-10-23T06:05:34.033Z,100430.09
2022-10-23T06:08:01.903Z,100419.78
2022-10-23T06:10:32.208Z,100417.63
2022-10-23T06:13:00.093Z,100413.78
2022-10-23T06:15:28.113Z,100406.69
2022-10-23T06:17:55.951Z,100399.19
2022-10-23T06:20:26.646Z,100405.88
2022-10-23T06:22:56.799Z,100396.97
2022-10-23T06:25:24.782Z,100407.09
2022-10-23T06:27:53.939Z,100401.50
2022-10-23T06:30:22.155Z,100397.53
2022-10-23T06:32:50.043Z,100395.81
2022-10-23T06:35:17.879Z,100388.59
2022-10-23T06:37:45.870Z,100390.41
2022-10-23T06:40:13.792Z,100391.63
2022-10-23T06:42:42.152Z,100391.97
2022-10-23T06:45:11.628Z,100391.88
2022-10-23T06:47:39.699Z,100396.00
2022-10-23T06:50:11.697Z,100398.81
2022-10-23T06:52:47.085Z,100410.94
2022-10-23T06:55:16.000Z,100406.66
2022-10-23T06:57:44.424Z,100402.38
2022-10-23T07:00:14.588Z,100412.47
2022-10-23T07:02:42.723Z,100406.72
2022-10-23T07:05:13.543Z,100404.22
2022-10-23T07:07:41.990Z,100398.44
2022-10-23T07:10:10.249Z,100406.38
2022-10-23T07:12:38.096Z,100392.00
2022-10-23T07:15:06.514Z,100393.28
2022-10-23T07:17:35.729Z,100390.91
2022-10-23T07:20:03.859Z,100395.09
2022-10-23T07:22:31.912Z,100387.22
2022-10-23T07:24:59.855Z,100388.22
2022-10-23T07:27:28.147Z,100391.44
2022-10-23T07:29:56.188Z,100377.88
2022-10-23T07:32:24.670Z,100388.84
2022-10-23T07:34:54.041Z,100393.69
2022-10-23T07:37:21.997Z,100397.75
2022-10-23T07:39:50.051Z,100401.16
2022-10-23T07:42:17.948Z,100384.22
2022-10-23T07:44:45.987Z,100381.34
2022-10-23T07:47:13.906Z,100377.47
2022-10-23T07:49:41.791Z,100379.59
2022-10-23T07:52:11.105Z,100374.94
2022-10-23T07:54:39.295Z,100365.78
2022-10-23T07:57:08.029Z,100372.94
2022-10-23T07:59:38.032Z,100359.69
2022-10-23T08:02:06.180Z,100363.56
2022-10-23T08:04:34.032Z,100364.03
2022-10-23T08:07:02.050Z,100360.94
2022-10-23T08:09:31.401Z,100361.56
2022-10-23T08:11:59.369Z,100363.81
2022-10-23T08:14:27.484Z,100352.66
2022-10-23T08:16:55.674Z,100355.25
2022-10-23T08:19:23.695Z,100355.34
2022-10-23T08:21:54.674Z,100357.56
2022-10-23T08:24:22.543Z,100359.59
2022-10-23T08:26:51.820Z,100348.09
2022-10-23T08:29:20.428Z,100338.72
2022-10-23T08:31:48.573Z,100350.94
2022-10-23T08:34:19.034Z,100337.34
2022-10-23T08:36:47.026Z,100342.66
2022-10-23T08:39:14.986Z,100340.53
2022-10-23T08:41:43.743Z,100336.94
2022-10-23T08:44:17.310Z,100333.16
2022-10-23T08:46:50.258Z,100330.44
2022-10-23T08:49:22.385Z,100336.88
2022-10-23T08:51:51.879Z,100338.78
2022-10-23T08:54:22.652Z,100332.19
2022-10-23T08:56:52.783Z,100318.59
2022-10-23T08:59:30.847Z,100321.00
2022-10-23T09:02:02.301Z,100322.13
2022-10-23T09:04:30.329Z,100326.50
2022-10-23T09:07:01.034Z,100319.31
2022-10-23T09:09:38.309Z,100321.06
2022-10-23T09:12:08.682Z,100323.03
2022-10-23T09:14:57.033Z,100318.22
2022-10-23T09:17:26.162Z,100305.94
2022-10-23T09:19:57.014Z,100308.47
2022-10-23T09:22:25.185Z,100292.72
2022-10-23T09:24:53.952Z,100289.09
2022-10-23T09:27:22.169Z,100278.34
2022-10-23T09:29:52.160Z,100275.44
2022-10-23T09:32:20.752Z,100280.28
2022-10-23T09:34:52.642Z,100274.91
2022-10-23T09:37:24.696Z,100282.09
2022-10-23T09:40:02.579Z,100277.25
2022-10-23T09:42:31.206Z,100260.19
2022-10-23T09:45:00.509Z,100258.50
2022-10-23T09:47:33.599Z,100266.16
2022-10-23T09:50:03.527Z,100270.06
2022-10-23T09:52:38.396Z,100263.16
2022-10-23T09:55:22.514Z,100268.88
2022-10-23T09:57:53.263Z,100259.09
2022-10-23T10:00:28.021Z,100265.88
2022-10-23T10:03:03.015Z,100271.81
2022-10-23T10:05:34.583Z,100258.66
2022-10-23T10:08:11.374Z,100262.94
2022-10-23T10:10:49.201Z,100261.34
2022-10-23T10:13:37.652Z,100259.56
2022-10-23T10:16:13.705Z,100255.47
2022-10-23T10:18:46.804Z,100248.13
2022-10-23T10:21:19.677Z,100241.97
2022-10-23T10:23:51.110Z,100241.88
2022-10-23T10:26:27.341Z,100234.56
2022-10-23T10:29:15.270Z,100231.91
2022-10-23T10:31:50.837Z,100217.00
2022-10-23T10:34:29.673Z,100220.69
2022-10-23T10:36:58.604Z,100211.59
2022-10-23T10:39:33.601Z,100210.84
2022-10-23T10:42:34.902Z,100205.06
2022-10-23T10:45:17.936Z,100206.22
2022-10-23T10:47:55.320Z,100199.63
2022-10-23T10:50:25.966Z,100195.78
2022-10-23T10:53:00.911Z,100186.50
2022-10-23T10:55:32.787Z,100186.16
2022-10-23T10:58:04.214Z,100186.44
2022-10-23T11:00:34.281Z,100189.41
2022-10-23T11:03:10.809Z,100184.03
2022-10-23T11:05:42.036Z,100177.34
2022-10-23T11:08:15.195Z,100179.13
2022-10-23T11:10:45.373Z,100172.69
2022-10-23T11:13:19.848Z,100162.44
2022-10-23T11:15:48.257Z,100153.34
2022-10-23T11:18:21.623Z,100151.03
2022-10-23T11:20:58.903Z,100148.28
2022-10-23T11:23:46.738Z,100137.00
2022-10-23T11:26:21.130Z,100128.59
2022-10-23T11:28:59.658Z,100117.97
2022-10-23T11:31:34.128Z,100121.59
2022-10-23T11:34:26.224Z,100109.59
2022-10-23T11:37:01.290Z,100097.38
2022-10-23T11:39:30.554Z,100090.41
2022-10-23T11:41:59.765Z,100083.13
2022-10-23T11:44:42.007Z,100075.22
2022-10-23T11:47:35.001Z,100068.59
2022-10-23T11:50:14.249Z,100062.81
2022-10-23T11:53:09.291Z,100069.16
2022-10-23T11:55:42.096Z,100066.00
2022-10-23T11:58:14.980Z,100068.72
2022-10-23T12:00:52.418Z,100070.00
2022-10-23T12:03:22.641Z,100061.50
2022-10-23T12:05:57.575Z,100054.41
2022-10-23T12:08:29.222Z,100050.53
2022-10-23T12:10:57.089Z,100061.94
2022-10-23T12:13:29.962Z,100056.63
2022-10-23T12:16:00.752Z,100056.31
2022-10-23T12:18:31.936Z,100050.66
2022-10-23T12:21:01.469Z,100052.91
2022-10-23T12:23:47.375Z,100050.81
2022-10-23T12:26:43.391Z,100037.00
2022-10-23T12:29:19.568Z,100041.56
2022-10-23T12:31:52.653Z,100032.31
2022-10-23T12:34:27.779Z,100024.16
2022-10-23T12:37:09.912Z,100018.78
2022-10-23T12:39:40.665Z,100012.63
2022-10-23T12:42:16.196Z,100007.94
2022-10-23T12:44:44.554Z,99996.56
2022-10-23T12:47:15.946Z,99985.22
2022-10-23T12:49:49.069Z,99992.81
2022-10-23T12:52:18.318Z,99993.50
2022-10-23T12:54:53.532Z,99982.63
2022-10-23T12:57:25.956Z,99993.06
2022-10-23T12:59:56.764Z,99975.94
2022-10-23T13:02:25.862Z,99970.00
2022-10-23T13:04:55.105Z,99968.03
2022-10-23T13:07:26.388Z,99958.13
2022-10-23T13:09:56.172Z,99950.50
2022-10-23T13:12:25.631Z,99950.53
2022-10-23T13:14:58.310Z,99946.50
2022-10-23T13:17:35.236Z,99942.72
2022-10-23T13:20:10.322Z,99937.06
2022-10-23T13:22:41.453Z,99944.72
2022-10-23T13:25:24.853Z,99931.91
2022-10-23T13:28:03.201Z,99933.97
2022-10-23T13:30:32.562Z,99930.31
2022-10-23T13:33:02.006Z,99936.16
2022-10-23T13:35:29.982Z,99929.84
2022-10-23T13:38:08.004Z,99935.75
2022-10-23T13:40:37.497Z,99927.94
2022-10-23T13:43:14.288Z,99927.91
2022-10-23T13:45:42.463Z,99919.19
2022-10-23T13:48:12.898Z,99905.75
2022-10-23T13:50:41.156Z,99898.00
2022-10-23T13:53:11.775Z,99894.56
2022-10-23T13:55:41.525Z,99888.88
2022-10-23T13:58:09.585Z,99886.81
2022-10-23T14:00:38.024Z,99893.09
2022-10-23T14:03:06.257Z,99890.63
2022-10-23T14:05:34.152Z,99897.31
2022-10-23T14:08:02.026Z,99889.69
2022-10-23T14:10:30.096Z,99888.94
2022-10-23T14:12:59.388Z,99891.53
2022-10-23T14:15:27.386Z,99883.34
2022-10-23T14:17:59.021Z,99881.69
2022-10-23T14:20:28.355Z,99875.72
2022-10-23T14:22:56.613Z,99877.66
2022-10-23T14:25:24.971Z,99881.59
2022-10-23T14:27:52.989Z,99872.75
2022-10-23T14:30:22.297Z,99864.75
2022-10-23T14:32:50.760Z,99868.25
2022-10-23T14:35:18.643Z,99875.72
2022-10-23T14:37:46.903Z,99866.94
2022-10-23T14:40:15.242Z,99875.94
2022-10-23T14:42:43.304Z,99858.50
2022-10-23T14:45:11.621Z,99849.88
2022-10-23T14:47:41.290Z,99841.59
2022-10-23T14:50:11.838Z,99838.44
2022-10-23T14:52:39.804Z,99833.97
2022-10-23T14:55:07.998Z,99828.00
2022-10-23T14:57:35.865Z,99831.16
2022-10-23T15:00:03.956Z,99833.09
2022-10-23T15:02:32.217Z,99827.81
2022-10-23T15:05:01.498Z,99824.91
2022-10-23T15:07:29.634Z,99815.66
2022-10-23T15:09:57.685Z,99814.75
2022-10-23T15:12:25.738Z,99811.13
2022-10-23T15:14:53.560Z,99804.31
2022-10-23T15:17:21.573Z,99803.28
2022-10-23T15:19:49.564Z,99798.31
2022-10-23T15:22:19.516Z,99797.81
2022-10-23T15:24:47.873Z,99798.88
2022-10-23T15:27:15.781Z,99798.19
2022-10-23T15:29:43.849Z,99805.72
2022-10-23T15:32:12.499Z,99816.34
2022-10-23T15:34:42.689Z,99848.41
2022-10-23T15:37:11.315Z,99866.34
2022-10-23T15:39:40.634Z,99882.41
2022-10-23T15:42:08.528Z,99877.53
2022-10-23T15:44:36.479Z,99832.56
2022-10-23T15:47:04.541Z,99811.13
2022-10-23T15:49:33.301Z,99827.06
2022-10-23T15:52:02.375Z,99835.59
2022-10-23T15:54:32.839Z,99838.72
2022-10-23T15:57:02.985Z,99836.56
2022-10-23T15:59:31.896Z,99843.84
2022-10-23T16:02:00.090Z,99847.59
2022-10-23T16:04:28.557Z,99845.97
2022-10-23T16:06:56.490Z,99849.19
2022-10-23T16:09:24.443Z,99853.81
2022-10-23T16:11:52.407Z,99852.56
2022-10-23T16:14:22.204Z,99851.94
2022-10-23T16:16:50.305Z,99851.50
2022-10-23T16:19:18.914Z,99862.19
2022-10-23T16:21:50.223Z,99864.84
2022-10-23T16:24:18.654Z,99852.00
2022-10-23T16:26:50.329Z,99863.06
2022-10-23T16:29:18.494Z,99856.81
2022-10-23T16:31:50.914Z,99865.00
2022-10-23T16:34:19.853Z,99872.84
2022-10-23T16:36:48.376Z,99868.75
2022-10-23T16:39:26.379Z,99861.63
2022-10-23T16:41:59.925Z,99857.97
2022-10-23T16:44:35.670Z,99876.03
2022-10-23T16:47:07.546Z,99872.47
2022-10-23T16:49:36.566Z,99883.38
2022-10-23T16:52:05.477Z,99868.13
2022-10-23T16:54:34.929Z,99888.59
2022-10-23T16:57:03.367Z,99884.94
2022-10-23T16:59:31.813Z,99893.22
2022-10-23T17:02:00.640Z,99891.97
2022-10-23T17:04:30.380Z,99890.13
2022-10-23T17:06:59.368Z,99889.44
2022-10-23T17:09:31.114Z,99910.47
2022-10-23T17:11:59.917Z,99923.91
2022-10-23T17:14:30.625Z,99933.13
2022-10-23T17:17:06.737Z,99962.81
2022-10-23T17:19:44.996Z,99970.22
2022-10-23T17:22:19.417Z,99975.72
2022-10-23T17:24:50.234Z,99974.81
2022-10-23T17:27:25.785Z,99923.78
2022-10-23T17:29:53.825Z,99873.19
2022-10-23T17:34:56.063Z,99827.63
2022-10-23T17:37:24.130Z,99810.63
2022-10-23T17:39:52.057Z,99802.72
2022-10-23T17:42:21.871Z,99820.84
2022-10-23T17:44:49.913Z,99837.97
2022-10-23T17:47:18.228Z,99850.25
2022-10-23T17:49:46.292Z,99853.81
2022-10-23T17:52:17.615Z,99860.81
2022-10-23T17:54:51.848Z,99837.78
2022-10-23T17:57:20.251Z,99840.28
2022-10-23T17:59:49.845Z,99835.03
2022-10-23T18:02:18.439Z,99829.75
2022-10-23T18:04:47.330Z,99821.38
2022-10-23T18:07:17.122Z,99823.47
2022-10-23T18:09:49.708Z,99836.88
2022-10-23T18:12:18.816Z,99841.22
2022-10-23T18:14:48.501Z,99863.34
2022-10-23T18:17:17.609Z,99864.63
2022-10-23T18:19:50.721Z,99859.56
2022-10-23T18:22:19.983Z,99855.09
2022-10-23T18:24:47.862Z,99848.91
2022-10-23T18:27:15.791Z,99845.00
2022-10-23T18:29:43.697Z,99843.50
2022-10-23T18:32:11.896Z,99838.47
2022-10-23T18:34:39.841Z,99845.69
2022-10-23T18:37:07.796Z,99834.69
2022-10-23T18:39:37.134Z,99820.91
2022-10-23T18:42:05.219Z,99814.06
2022-10-23T18:44:33.520Z,99816.91
2022-10-23T18:47:04.025Z,99812.56
2022-10-23T18:49:32.063Z,99807.06
2022-10-23T18:52:00.037Z,99803.03
2022-10-23T18:54:28.128Z,99799.72
2022-10-23T18:56:57.504Z,99805.56
2022-10-23T18:59:25.472Z,99809.56
2022-10-23T19:02:09.213Z,99804.97
2022-10-23T19:04:48.571Z,99811.50
2022-10-23T19:07:17.133Z,99799.47
2022-10-23T19:09:45.027Z,99795.94
2022-10-23T19:14:47.692Z,99796.72
2022-10-23T19:17:18.206Z,99803.63
2022-10-23T19:19:47.779Z,99803.34
2022-10-23T19:22:17.486Z,99782.28
2022-10-23T19:24:52.077Z,99792.34
2022-10-23T19:27:21.570Z,99787.19
2022-10-23T19:29:52.100Z,99786.53
2022-10-23T19:32:20.166Z,99778.03
2022-10-23T19:34:48.130Z,99774.03
2022-10-23T19:37:16.603Z,99773.41
2022-10-23T19:39:44.714Z,99771.25
2022-10-23T19:42:12.903Z,99766.34
2022-10-23T19:44:42.248Z,99766.47
2022-10-23T19:47:12.361Z,99774.72
2022-10-23T19:49:50.682Z,99757.41
2022-10-23T19:52:19.160Z,99764.28
2022-10-23T19:54:47.074Z,99778.84
2022-10-23T19:57:17.035Z,99777.25
2022-10-23T19:59:50.972Z,99782.72
2022-10-23T20:02:19.591Z,99784.91
2022-10-23T20:04:47.734Z,99759.69
2022-10-23T20:07:15.590Z,99775.16
2022-10-23T20:09:43.555Z,99768.06
2022-10-23T20:12:11.467Z,99785.25
2022-10-23T20:14:39.690Z,99770.00
2022-10-23T20:17:08.946Z,99776.50
2022-10-23T20:19:37.422Z,99763.41
2022-10-23T20:22:05.437Z,99762.16
2022-10-23T20:24:33.581Z,99772.53
2022-10-23T20:27:01.556Z,99775.06
2022-10-23T20:29:29.794Z,99779.75
2022-10-23T20:31:57.668Z,99780.53
2022-10-23T20:34:26.898Z,99784.47
2022-10-23T20:36:54.847Z,99782.59
2022-10-23T20:39:25.385Z,99790.31
2022-10-23T20:41:55.110Z,99800.84
2022-10-23T20:44:23.633Z,99798.22
2022-10-23T20:46:52.238Z,99803.41
2022-10-23T20:49:20.461Z,99836.03
2022-10-23T20:51:54.988Z,99850.47
2022-10-23T20:54:34.721Z,99874.38
2022-10-23T20:57:05.309Z,99859.72
2022-10-23T20:59:35.371Z,99868.47
2022-10-23T21:02:09.233Z,99874.19
2022-10-23T21:04:37.633Z,99890.00
2022-10-23T21:07:11.306Z,99903.09
2022-10-23T21:09:40.015Z,99896.66
2022-10-23T21:12:08.212Z,99893.22
2022-10-23T21:14:36.325Z,99885.34
2022-10-23T21:17:04.955Z,99861.25
2022-10-23T21:19:32.967Z,99874.25
2022-10-23T21:22:03.274Z,99850.28
2022-10-23T21:24:35.369Z,99831.81
2022-10-23T21:27:08.927Z,99839.84
2022-10-23T21:29:38.023Z,99843.41
2022-10-23T21:32:06.163Z,99839.63
2022-10-23T21:34:34.900Z,99838.03
2022-10-23T21:37:13.583Z,99850.88
2022-10-23T21:39:45.300Z,99862.22
2022-10-23T21:42:14.093Z,99861.81
2022-10-23T21:44:42.688Z,99868.94
2022-10-23T21:47:10.976Z,99870.53
2022-10-23T21:49:39.262Z,99870.66
2022-10-23T21:52:08.264Z,99863.84
2022-10-23T21:54:45.159Z,99872.81
2022-10-23T21:57:15.838Z,99873.28
2022-10-23T21:59:44.507Z,99865.50
2022-10-23T22:02:12.712Z,99867.41
2022-10-23T22:04:48.555Z,99874.41
2022-10-23T22:07:18.208Z,99863.41
2022-10-23T22:09:46.592Z,99865.69
2022-10-23T22:12:16.017Z,99863.66
2022-10-23T22:14:44.265Z,99862.34
2022-10-23T22:17:12.376Z,99865.59
2022-10-23T22:19:40.917Z,99866.31
2022-10-23T22:22:08.882Z,99861.34
2022-10-23T22:24:37.211Z,99866.75
2022-10-23T22:27:05.911Z,99863.78
2022-10-23T22:29:35.876Z,99859.19
2022-10-23T22:32:04.143Z,99865.03
2022-10-23T22:34:51.830Z,99861.47
2022-10-23T22:37:21.243Z,99858.38
2022-10-23T22:39:51.192Z,99849.00
2022-10-23T22:42:23.043Z,99846.03
2022-10-23T22:44:53.474Z,99852.00
2022-10-23T22:47:30.351Z,99834.53
2022-10-23T22:49:58.647Z,99842.56
2022-10-23T22:52:30.203Z,99852.31
2022-10-23T22:54:58.411Z,99853.56
2022-10-23T22:57:29.285Z,99860.59
2022-10-23T22:59:58.991Z,99860.84
2022-10-23T23:02:26.969Z,99857.28
2022-10-23T23:04:55.037Z,99852.25
2022-10-23T23:07:23.018Z,99858.44
2022-10-23T23:09:51.094Z,99850.63
2022-10-23T23:12:19.186Z,99851.09
2022-10-23T23:14:47.113Z,99855.00
2022-10-23T23:17:16.457Z,99849.97
2022-10-23T23:19:44.544Z,99847.44
2022-10-23T23:22:12.627Z,99849.97
2022-10-23T23:24:40.813Z,99856.03
2022-10-23T23:27:09.053Z,99858.19
2022-10-23T23:29:37.015Z,99849.81
2022-10-23T23:32:06.259Z,99839.16
2022-10-23T23:34:35.553Z,99830.44
2022-10-23T23:37:03.608Z,99827.00
2022-10-23T23:39:31.620Z,99826.31
2022-10-23T23:41:59.576Z,99832.16
2022-10-23T23:44:27.599Z,99835.94
2022-10-23T23:46:55.820Z,99843.28
2022-10-23T23:49:24.258Z,99842.38
2022-10-23T23:51:53.748Z,99833.41
2022-10-23T23:54:21.731Z,99824.47
2022-10-23T23:56:49.703Z,99831.22
2022-10-23T23:59:17.614Z,99831.06
